Главная страница
METAR-TAF:

METAR-TAF

Аэропорты :

Висбю, Готланд, Швеция

широта: 57-40N, долгота: 018-21E, высота над уровнем моря: 51 м

Текущие метеонаблюдения

Эта сводка был подготовлена 11 минут назад, в 21:50 UTC
Ветер 6 Узел от западный-юго-западный
Температура 4°C
Влажность 87%
Давление 1008 hPa
Видимость 10 км и более

METAR: ESSV 072150Z AUTO 24006KT 9999 FEW064/// OVC094/// 04/02 Q1008

Время: 00:01 (22:01 UTC)

Прогноз

Эта сводка был подготовлена 4 часа и 31 минут назад, в 17:30 UTC
Прогноз действительный с 07-го 18 UTC до 07-го 20 UTC
Ветер 6 Узел от западный
Видимость 10 км и более
Нет облачности ниже 1500 м, и нет кучево-дождевой облачности
Вероятность 40%
С 07-го 18 UTC до 07-го 20 UTC
Отдельные облака на высоте 4000 фута, мощно-кучевые.

TAF: ESSV 071730Z 0718/0720 26006KT CAVOK PROB40 0718/0720 SCT040TCU

Метеонаблюдения и прогнозы для более 4000 аэропортов (сводки METAR и TAF).

Имеющиеся станции представлены на карте желтыми и красными точками.

Чтобы увидеть название станции, наведите на нее мышь.

Затем щелкните, чтобы увидеть метеонаблюдения и метеопрогнозы.

Управление картой: чтобы увеличить масштаб, щелкните зеленые кнопки с черным крестиком; чтобы уменьшить масштаб, щелкните зеленую кнопку с тире; для просмотра соседних карт щелкайте зеленые стрелки.


METAR-TAF: